createdAt,value
2022-10-11T03:00:51.154Z,2.00
2022-10-11T03:03:18.641Z,1.65
2022-10-11T03:05:46.158Z,1.10
2022-10-11T03:08:14.517Z,1.58
2022-10-11T03:10:42.308Z,4.13
2022-10-11T03:13:10.939Z,2.03
2022-10-11T03:15:40.352Z,1.35
2022-10-11T03:18:09.175Z,1.10
2022-10-11T03:20:36.675Z,1.00
2022-10-11T03:23:04.202Z,1.50
2022-10-11T03:25:31.669Z,1.50
2022-10-11T03:27:59.140Z,1.30
2022-10-11T03:30:26.869Z,1.10
2022-10-11T03:32:54.434Z,1.65
2022-10-11T03:35:23.355Z,1.15
2022-10-11T03:37:51.504Z,0.90
2022-10-11T03:40:19.093Z,1.27
2022-10-11T03:42:46.567Z,1.13
2022-10-11T03:45:14.425Z,1.17
2022-10-11T03:47:42.094Z,1.20
2022-10-11T03:50:10.420Z,1.20
2022-10-11T03:52:39.282Z,0.93
2022-10-11T03:55:07.269Z,1.03
2022-10-11T03:57:34.730Z,1.10
2022-10-11T04:00:02.220Z,1.10
2022-10-11T04:02:29.738Z,1.30
2022-10-11T04:04:57.253Z,1.40
2022-10-11T04:07:24.754Z,0.90
2022-10-11T04:09:53.919Z,1.30
2022-10-11T04:12:21.466Z,1.15
2022-10-11T04:14:48.978Z,1.20
2022-10-11T04:17:16.734Z,1.20
2022-10-11T04:19:44.260Z,1.37
2022-10-11T04:22:11.726Z,1.20
2022-10-11T04:24:39.218Z,1.00
2022-10-11T04:27:08.068Z,1.15
2022-10-11T04:29:35.546Z,1.23
2022-10-11T04:32:03.104Z,1.73
2022-10-11T04:34:31.407Z,1.50
2022-10-11T04:36:58.913Z,1.10
2022-10-11T04:39:26.383Z,1.35
2022-10-11T04:41:53.870Z,0.80
2022-10-11T04:44:22.709Z,1.00
2022-10-11T04:46:50.181Z,1.08
2022-10-11T04:49:17.729Z,1.40
2022-10-11T04:51:45.227Z,0.90
2022-10-11T04:54:12.743Z,1.05
2022-10-11T04:56:40.229Z,0.93
2022-10-11T04:59:07.974Z,1.08
2022-10-11T05:01:36.832Z,1.25
2022-10-11T05:04:04.429Z,1.42
2022-10-11T05:06:31.923Z,0.90
2022-10-11T05:09:00.598Z,1.50
2022-10-11T05:11:28.114Z,1.00
2022-10-11T05:13:56.578Z,1.23
2022-10-11T05:16:24.095Z,1.30
2022-10-11T05:18:53.125Z,1.05
2022-10-11T05:21:21.724Z,0.90
2022-10-11T05:23:49.740Z,1.40
2022-10-11T05:26:17.800Z,1.42
2022-10-11T05:28:45.671Z,1.25
2022-10-11T05:31:13.275Z,1.20
2022-10-11T05:33:40.754Z,1.00
2022-10-11T05:36:10.094Z,1.20
2022-10-11T05:38:38.291Z,0.80
2022-10-11T05:41:06.336Z,1.00
2022-10-11T05:43:33.843Z,1.15
2022-10-11T05:46:01.609Z,1.23
2022-10-11T05:48:29.323Z,1.42
2022-10-11T05:50:59.888Z,1.23
2022-10-11T05:53:28.813Z,1.17
2022-10-11T05:55:56.540Z,1.27
2022-10-11T05:58:24.027Z,0.93
2022-10-11T06:00:51.560Z,1.23
2022-10-11T06:03:21.074Z,0.90
2022-10-11T06:05:50.435Z,1.30
2022-10-11T06:08:20.771Z,1.10
2022-10-11T06:10:49.637Z,1.30
2022-10-11T06:13:17.114Z,1.70
2022-10-11T06:15:44.627Z,1.35
2022-10-11T06:18:12.128Z,1.60
2022-10-11T06:20:39.615Z,1.23
2022-10-11T06:23:07.153Z,1.20
2022-10-11T06:25:34.612Z,1.20
2022-10-11T06:28:03.675Z,1.63
2022-10-11T06:30:31.182Z,1.33
2022-10-11T06:33:03.762Z,1.20
2022-10-11T06:35:32.243Z,1.40
2022-10-11T06:37:59.709Z,1.35
2022-10-11T06:40:27.316Z,1.38
2022-10-11T06:42:54.865Z,1.52
2022-10-11T06:45:23.838Z,1.13
2022-10-11T06:47:51.352Z,1.30
2022-10-11T06:50:34.904Z,1.27
2022-10-11T06:53:07.404Z,1.38
2022-10-11T06:55:35.162Z,0.80
2022-10-11T06:58:02.637Z,1.20
2022-10-11T07:00:31.511Z,1.00
2022-10-11T07:02:59.016Z,1.17
2022-10-11T07:05:26.562Z,1.20
2022-10-11T07:07:54.028Z,1.02
2022-10-11T07:10:21.705Z,1.27
2022-10-11T07:12:49.179Z,1.10
2022-10-11T07:15:16.806Z,1.05
2022-10-11T07:17:45.653Z,1.20
2022-10-11T07:20:13.300Z,1.10
2022-10-11T07:22:40.812Z,0.98
2022-10-11T07:25:08.642Z,1.00
2022-10-11T07:27:36.148Z,0.90
2022-10-11T07:30:03.758Z,1.10
2022-10-11T07:32:31.905Z,1.08
2022-10-11T07:35:00.978Z,1.23
2022-10-11T07:37:28.482Z,0.93
2022-10-11T07:39:55.969Z,1.00
2022-10-11T07:42:23.517Z,1.08
2022-10-11T07:44:51.008Z,1.02
2022-10-11T07:47:18.542Z,0.90
2022-10-11T07:49:46.091Z,1.03
2022-10-11T07:52:14.930Z,1.10
2022-10-11T07:54:42.454Z,1.42
2022-10-11T07:57:10.004Z,1.45
2022-10-11T07:59:37.518Z,1.20
2022-10-11T08:02:05.039Z,1.27
2022-10-11T08:04:56.443Z,0.90
2022-10-11T08:07:25.318Z,1.15
2022-10-11T08:09:53.061Z,1.80
2022-10-11T08:12:20.577Z,1.48
2022-10-11T08:14:48.081Z,1.40
2022-10-11T08:17:15.723Z,1.35
2022-10-11T08:19:43.246Z,1.20
2022-10-11T08:22:10.773Z,1.85
2022-10-11T08:24:39.690Z,1.50
2022-10-11T08:27:07.184Z,1.57
2022-10-11T08:29:34.742Z,1.63
2022-10-11T08:32:02.238Z,1.80
2022-10-11T08:34:29.736Z,1.70
2022-10-11T08:36:57.274Z,1.52
2022-10-11T08:39:24.777Z,1.50
2022-10-11T08:41:55.121Z,1.27
2022-10-11T08:44:51.737Z,1.60
2022-10-11T08:47:22.441Z,1.45
2022-10-11T08:49:50.772Z,1.50
2022-10-11T08:52:22.714Z,1.30
2022-10-11T08:54:51.569Z,1.00
2022-10-11T08:57:21.496Z,1.15
2022-10-11T08:59:51.032Z,1.10
2022-10-11T09:02:24.734Z,1.13
2022-10-11T09:04:53.352Z,0.93
2022-10-11T09:07:25.399Z,1.20
2022-10-11T09:10:00.162Z,1.40
2022-10-11T09:12:37.160Z,1.48
2022-10-11T09:15:16.645Z,1.60
2022-10-11T09:17:52.372Z,1.30
2022-10-11T09:20:36.689Z,1.55
2022-10-11T09:23:05.761Z,1.40
2022-10-11T09:25:34.901Z,1.60
2022-10-11T09:28:07.392Z,1.30
2022-10-11T09:30:36.833Z,1.60
2022-10-11T09:33:09.909Z,1.40
2022-10-11T09:35:39.601Z,1.13
2022-10-11T09:38:08.929Z,1.55
2022-10-11T09:40:41.250Z,1.90
2022-10-11T09:43:10.416Z,1.93
2022-10-11T09:45:38.764Z,1.70
2022-10-11T09:48:07.550Z,1.63
2022-10-11T09:50:35.551Z,1.80
2022-10-11T09:53:04.856Z,2.10
2022-10-11T09:55:34.080Z,2.00
2022-10-11T09:58:01.639Z,2.05
2022-10-11T10:00:33.506Z,2.05
2022-10-11T10:03:01.813Z,2.00
2022-10-11T10:05:29.425Z,2.38
2022-10-11T10:08:04.483Z,2.63
2022-10-11T10:10:35.260Z,2.28
2022-10-11T10:13:03.879Z,2.40
2022-10-11T10:15:33.785Z,2.47
2022-10-11T10:18:01.654Z,2.30
2022-10-11T10:20:31.658Z,2.57
2022-10-11T10:23:00.409Z,1.90
2022-10-11T10:25:32.794Z,1.70
2022-10-11T10:28:01.312Z,1.60
2022-10-11T10:30:33.075Z,1.67
2022-10-11T10:33:05.520Z,1.50
2022-10-11T10:35:35.038Z,1.50
2022-10-11T10:38:10.045Z,1.30
2022-10-11T10:40:40.507Z,1.40
2022-10-11T10:43:11.914Z,1.40
2022-10-11T10:45:43.937Z,1.23
2022-10-11T10:48:17.755Z,1.20
2022-10-11T10:50:49.785Z,1.30
2022-10-11T10:53:21.943Z,1.65
2022-10-11T10:55:53.319Z,1.30
2022-10-11T10:58:34.347Z,1.40
2022-10-11T11:01:05.143Z,1.20
2022-10-11T11:03:36.865Z,1.20
2022-10-11T11:06:07.133Z,1.10
2022-10-11T11:08:51.132Z,1.13
2022-10-11T11:11:24.959Z,1.10
2022-10-11T11:13:55.023Z,1.30
2022-10-11T11:16:27.296Z,1.27
2022-10-11T11:18:59.209Z,1.48
2022-10-11T11:21:40.508Z,1.05
2022-10-11T11:24:14.649Z,1.10
2022-10-11T11:26:46.128Z,1.20
2022-10-11T11:29:19.625Z,1.30
2022-10-11T11:31:51.809Z,1.23
2022-10-11T11:34:23.125Z,1.30
2022-10-11T11:36:52.835Z,1.20
2022-10-11T11:39:21.944Z,1.33
2022-10-11T11:41:52.385Z,1.58
2022-10-11T11:44:27.095Z,1.38
2022-10-11T11:46:57.863Z,1.20
2022-10-11T11:49:30.573Z,1.30
2022-10-11T11:51:58.936Z,1.50
2022-10-11T11:54:31.660Z,1.45
2022-10-11T11:57:02.430Z,1.20
2022-10-11T11:59:34.621Z,1.30
2022-10-11T12:02:08.144Z,1.58
2022-10-11T12:04:39.144Z,1.93
2022-10-11T12:07:22.644Z,1.80
2022-10-11T12:09:51.393Z,1.98
2022-10-11T12:12:29.717Z,2.10
2022-10-11T12:15:04.519Z,2.25
2022-10-11T12:17:32.371Z,1.63
2022-10-11T12:20:10.123Z,1.52
2022-10-11T12:22:39.415Z,1.40
2022-10-11T12:25:33.141Z,1.60
2022-10-11T12:28:01.562Z,1.67
2022-10-11T12:30:55.881Z,2.03
2022-10-11T12:33:24.121Z,1.30
2022-10-11T12:36:00.401Z,1.40
2022-10-11T12:38:33.149Z,1.20
2022-10-11T12:41:20.696Z,1.40
2022-10-11T12:44:07.071Z,1.70
2022-10-11T12:46:42.089Z,1.60
2022-10-11T12:49:22.798Z,1.60
2022-10-11T12:51:56.650Z,1.90
2022-10-11T12:54:37.590Z,1.90
2022-10-11T12:57:19.457Z,1.47
2022-10-11T12:59:47.126Z,1.20
2022-10-11T13:02:24.822Z,1.02
2022-10-11T13:04:52.377Z,1.40
2022-10-11T13:07:23.541Z,1.58
2022-10-11T13:09:53.621Z,1.60
2022-10-11T13:12:23.256Z,1.55
2022-10-11T13:14:57.581Z,1.20
2022-10-11T13:17:26.445Z,1.88
2022-10-11T13:20:00.106Z,1.55
2022-10-11T13:22:29.101Z,1.30
2022-10-11T13:24:57.051Z,1.35
2022-10-11T13:27:26.027Z,1.35
2022-10-11T13:29:54.706Z,1.08
2022-10-11T13:32:23.978Z,1.10
2022-10-11T13:37:28.287Z,1.20
2022-10-11T13:39:58.405Z,1.27
2022-10-11T13:42:28.858Z,1.20
2022-10-11T13:44:56.642Z,1.40
2022-10-11T13:47:27.727Z,1.40
2022-10-11T13:50:02.407Z,1.30
2022-10-11T13:52:30.010Z,1.70
2022-10-11T13:55:09.137Z,1.85
2022-10-11T13:57:38.482Z,1.30
2022-10-11T14:00:10.337Z,1.13
2022-10-11T14:02:38.551Z,1.10
2022-10-11T14:05:06.460Z,1.20
2022-10-11T14:07:36.552Z,1.10
2022-10-11T14:10:06.699Z,0.90
2022-10-11T14:12:35.486Z,1.20
2022-10-11T14:15:04.015Z,1.00
2022-10-11T14:17:38.983Z,1.08
2022-10-11T14:20:11.738Z,1.08
2022-10-11T14:22:39.531Z,1.20
2022-10-11T14:25:08.631Z,1.03
2022-10-11T14:27:37.238Z,0.90
2022-10-11T14:30:24.586Z,1.05
2022-10-11T14:32:54.791Z,1.08
2022-10-11T14:35:23.511Z,1.15
2022-10-11T14:37:51.327Z,1.10
2022-10-11T14:40:21.258Z,1.30
2022-10-11T14:42:49.005Z,0.95
2022-10-11T14:45:16.537Z,1.00
2022-10-11T14:47:44.049Z,1.00
2022-10-11T14:50:20.884Z,1.20
2022-10-11T14:52:48.402Z,1.10
2022-10-11T14:55:15.905Z,1.00
2022-10-11T14:57:44.761Z,0.95
2022-10-11T15:00:16.161Z,0.90
2022-10-11T15:02:43.651Z,1.30
2022-10-11T15:05:11.180Z,1.27
2022-10-11T15:07:38.846Z,1.00
2022-10-11T15:10:15.880Z,0.80
2022-10-11T15:12:43.371Z,1.10
2022-10-11T15:15:16.178Z,1.00
2022-10-11T15:17:44.407Z,1.20
2022-10-11T15:20:16.593Z,1.20
2022-10-11T15:22:44.105Z,1.08
2022-10-11T15:25:11.764Z,1.05
2022-10-11T15:27:39.311Z,1.10
2022-10-11T15:30:08.048Z,1.25
2022-10-11T15:32:36.989Z,1.17
2022-10-11T15:35:04.653Z,1.20
2022-10-11T15:37:37.089Z,1.00
2022-10-11T15:40:11.388Z,1.00
2022-10-11T15:42:39.273Z,0.95
2022-10-11T15:45:06.936Z,1.15
2022-10-11T15:47:34.460Z,1.10
2022-10-11T15:50:03.366Z,1.05
2022-10-11T15:52:31.038Z,1.40
2022-10-11T15:54:58.535Z,1.30
2022-10-11T15:57:26.023Z,1.27
2022-10-11T15:59:53.751Z,1.17
2022-10-11T16:02:21.242Z,1.23
2022-10-11T16:04:48.742Z,1.20
2022-10-11T16:07:17.622Z,1.45
2022-10-11T16:09:45.229Z,1.48
2022-10-11T16:12:12.739Z,1.30
2022-10-11T16:14:44.908Z,1.38
2022-10-11T16:17:14.501Z,1.63
2022-10-11T16:19:42.044Z,1.40
2022-10-11T16:22:09.659Z,1.48
2022-10-11T16:24:38.743Z,1.88
2022-10-11T16:27:06.254Z,1.83
2022-10-11T16:29:34.148Z,1.97
2022-10-11T16:32:01.702Z,1.73
2022-10-11T16:34:29.281Z,1.70
2022-10-11T16:36:56.795Z,1.48
2022-10-11T16:39:24.332Z,1.40
2022-10-11T16:41:53.225Z,1.57
2022-10-11T16:44:21.662Z,6.88
2022-10-11T16:46:49.535Z,4.25
2022-10-11T16:49:17.116Z,4.20
2022-10-11T16:51:44.768Z,4.88
2022-10-11T16:54:15.533Z,4.43
2022-10-11T16:56:45.627Z,5.05
2022-10-11T16:59:14.536Z,4.00
2022-10-11T17:01:42.055Z,3.60
2022-10-11T17:04:10.537Z,5.78
2022-10-11T17:06:38.031Z,36.70
2022-10-11T17:09:05.723Z,51.78
2022-10-11T17:11:35.518Z,56.78
2022-10-11T17:14:03.155Z,62.60
2022-10-11T17:16:32.060Z,49.03
2022-10-11T17:18:59.655Z,46.10
2022-10-11T17:21:27.209Z,22.70
2022-10-11T17:23:54.685Z,9.18
2022-10-11T17:26:23.317Z,10.93
2022-10-11T17:28:50.906Z,8.40
2022-10-11T17:31:18.495Z,9.47
2022-10-11T17:33:47.513Z,7.90
2022-10-11T17:36:16.839Z,7.05
2022-10-11T17:38:44.345Z,5.53
2022-10-11T17:41:11.890Z,3.50
2022-10-11T17:43:39.637Z,3.17
2022-10-11T17:46:08.882Z,3.20
2022-10-11T17:48:39.137Z,4.45
2022-10-11T17:51:09.299Z,5.75
2022-10-11T17:53:37.563Z,6.03
2022-10-11T17:56:05.787Z,10.80
2022-10-11T17:58:33.415Z,6.25
2022-10-11T18:01:04.620Z,3.17
2022-10-11T18:03:32.557Z,2.85
2022-10-11T18:06:02.867Z,2.78
2022-10-11T18:08:34.296Z,2.80
2022-10-11T18:11:04.443Z,3.08
2022-10-11T18:13:32.300Z,3.28
2022-10-11T18:15:59.786Z,3.00
2022-10-11T18:18:27.339Z,2.70
2022-10-11T18:20:54.846Z,3.20
2022-10-11T18:23:22.713Z,2.70
2022-10-11T18:25:51.581Z,3.30
2022-10-11T18:28:19.308Z,2.90
2022-10-11T18:30:47.882Z,3.08
2022-10-11T18:33:16.052Z,2.90
2022-10-11T18:35:43.602Z,2.95
2022-10-11T18:38:11.116Z,3.33
2022-10-11T18:40:40.405Z,2.97
2022-10-11T18:43:12.385Z,3.33
2022-10-11T18:45:39.894Z,3.67
2022-10-11T18:48:08.642Z,3.45
2022-10-11T18:50:36.130Z,3.70
2022-10-11T18:55:36.110Z,3.30
2022-10-11T18:58:03.624Z,3.33
2022-10-11T19:00:40.828Z,3.00
2022-10-11T19:03:08.963Z,3.40
2022-10-11T19:05:39.109Z,3.53
2022-10-11T19:08:07.129Z,4.07
2022-10-11T19:10:35.137Z,3.80
2022-10-11T19:13:03.495Z,3.45
2022-10-11T19:15:32.376Z,3.78
2022-10-11T19:18:00.095Z,3.63
2022-10-11T19:20:27.664Z,3.28
2022-10-11T19:22:55.220Z,3.30
2022-10-11T19:25:22.857Z,3.42
2022-10-11T19:27:50.357Z,3.75
2022-10-11T19:30:17.887Z,4.05
2022-10-11T19:32:46.810Z,4.53
2022-10-11T19:35:19.703Z,4.40
2022-10-11T19:37:48.462Z,4.57
2022-10-11T19:40:16.905Z,4.63
2022-10-11T19:42:46.497Z,4.43
2022-10-11T19:45:14.083Z,4.40
2022-10-11T19:47:41.624Z,5.10
2022-10-11T19:50:10.900Z,4.68
2022-10-11T19:52:41.530Z,4.70
2022-10-11T19:55:12.289Z,4.95
2022-10-11T19:57:39.798Z,5.65
2022-10-11T20:00:07.820Z,4.60
2022-10-11T20:02:35.322Z,4.60
2022-10-11T20:05:02.822Z,5.07
2022-10-11T20:07:31.821Z,5.95
2022-10-11T20:09:59.579Z,5.68
2022-10-11T20:12:29.375Z,6.23
2022-10-11T20:14:57.145Z,5.57
2022-10-11T20:17:44.649Z,6.68
2022-10-11T20:20:12.255Z,5.82
2022-10-11T20:22:41.143Z,5.93
2022-10-11T20:25:09.110Z,4.90
2022-10-11T20:27:36.665Z,5.88
2022-10-11T20:30:04.451Z,5.00
2022-10-11T20:32:31.965Z,5.43
2022-10-11T20:34:59.462Z,5.20
2022-10-11T20:37:26.967Z,5.27
2022-10-11T20:39:55.806Z,4.18
2022-10-11T20:42:27.592Z,4.35
2022-10-11T20:44:57.178Z,4.28
2022-10-11T20:47:24.719Z,4.07
2022-10-11T20:49:52.549Z,4.67
2022-10-11T20:52:20.049Z,4.38
2022-10-11T20:54:47.583Z,4.53
2022-10-11T20:57:16.427Z,4.30
2022-10-11T20:59:43.922Z,4.20
